Terminal Aerodrome Forecast
Issued by NWS

Home | Current Version | Previous Version | Text Only | Print | Product List | Glossary On
Versions: 1 2 3 4 5 6 7 8 9 10 11 12 13
000
FTUS42 KMLB 230520
TAFLEE
TAF
KLEE 230520Z 2306/2406 06006KT P6SM FEW060 BKN250
     FM231400 06011KT P6SM SCT040
     FM231800 07013KT P6SM SCT040 SCT060 PROB30 2321/2324 3SM TSRA
      BKN025CB
     FM240000 07014KT P6SM BKN060
     FM240200 06007KT P6SM BKN060=

USA.gov is the U.S. government's official web portal to all federal, state and local government web resources and services.